Terminal Aerodrome Forecast
Issued by NWS

Home | Current Version | Previous Version | Text Only | Print | Product List | Glossary On
Versions: 1 2 3 4 5 6 7 8 9 10 11 12 13 14 15 16 17 18 19 20
000
FTUS41 KGYX 291123
TAFHIE
TAF
KHIE 291123Z 2912/3012 00000KT P6SM OVC027
     FM291500 32008KT P6SM BKN025
     FM292000 32010G29KT P6SM BKN025
     FM300100 32008KT P6SM BKN025=

USA.gov is the U.S. government's official web portal to all federal, state and local government web resources and services.